sensor_id;sensor_type;location;lat;lon;timestamp;temperature;humidity
49549;DHT22;35450;44.518;7.466;2023-11-18T07:44:38;8.90;71.80
49549;DHT22;35450;44.518;7.466;2023-11-18T07:47:44;8.90;72.20
49549;DHT22;35450;44.518;7.466;2023-11-18T07:50:48;8.90;74.20
49549;DHT22;35450;44.518;7.466;2023-11-18T07:53:52;8.90;75.50
49549;DHT22;35450;44.518;7.466;2023-11-18T07:56:58;9.00;75.50
49549;DHT22;35450;44.518;7.466;2023-11-18T08:00:03;9.00;76.50
49549;DHT22;35450;44.518;7.466;2023-11-18T08:03:16;9.10;76.50
49549;DHT22;35450;44.518;7.466;2023-11-18T08:06:20;9.10;76.10
49549;DHT22;35450;44.518;7.466;2023-11-18T08:09:24;9.20;76.30
49549;DHT22;35450;44.518;7.466;2023-11-18T08:12:32;9.30;76.70
49549;DHT22;35450;44.518;7.466;2023-11-18T08:15:41;9.30;75.70
49549;DHT22;35450;44.518;7.466;2023-11-18T08:18:45;9.40;75.80
49549;DHT22;35450;44.518;7.466;2023-11-18T08:21:49;9.50;77.50
49549;DHT22;35450;44.518;7.466;2023-11-18T08:24:53;9.60;78.10
49549;DHT22;35450;44.518;7.466;2023-11-18T08:27:57;9.60;77.90
49549;DHT22;35450;44.518;7.466;2023-11-18T08:31:01;9.60;77.80
49549;DHT22;35450;44.518;7.466;2023-11-18T08:34:05;9.70;77.90
49549;DHT22;35450;44.518;7.466;2023-11-18T08:37:09;9.70;78.20
49549;DHT22;35450;44.518;7.466;2023-11-18T08:40:12;9.80;77.20
49549;DHT22;35450;44.518;7.466;2023-11-18T08:43:19;9.80;76.90
49549;DHT22;35450;44.518;7.466;2023-11-18T08:46:24;9.90;75.90
49549;DHT22;35450;44.518;7.466;2023-11-18T08:49:29;9.90;75.40
49549;DHT22;35450;44.518;7.466;2023-11-18T08:52:38;10.00;73.00
49549;DHT22;35450;44.518;7.466;2023-11-18T08:55:46;10.10;70.90
49549;DHT22;35450;44.518;7.466;2023-11-18T08:58:57;10.10;69.10
49549;DHT22;35450;44.518;7.466;2023-11-18T09:02:03;10.20;68.30
49549;DHT22;35450;44.518;7.466;2023-11-18T09:05:09;10.20;68.40
49549;DHT22;35450;44.518;7.466;2023-11-18T09:08:16;10.30;68.10
49549;DHT22;35450;44.518;7.466;2023-11-18T09:11:22;10.30;66.90
49549;DHT22;35450;44.518;7.466;2023-11-18T09:14:26;10.40;66.90
49549;DHT22;35450;44.518;7.466;2023-11-18T09:17:30;10.50;68.00
49549;DHT22;35450;44.518;7.466;2023-11-18T09:20:34;10.50;67.50
49549;DHT22;35450;44.518;7.466;2023-11-18T09:23:40;10.60;73.60
49549;DHT22;35450;44.518;7.466;2023-11-18T09:26:44;10.80;69.00
49549;DHT22;35450;44.518;7.466;2023-11-18T09:29:51;10.90;66.60
49549;DHT22;35450;44.518;7.466;2023-11-18T09:32:55;11.00;66.90
49549;DHT22;35450;44.518;7.466;2023-11-18T09:36:00;11.00;69.10
49549;DHT22;35450;44.518;7.466;2023-11-18T09:39:04;11.10;68.60
49549;DHT22;35450;44.518;7.466;2023-11-18T09:42:09;11.20;67.60
49549;DHT22;35450;44.518;7.466;2023-11-18T09:45:13;11.30;67.40
49549;DHT22;35450;44.518;7.466;2023-11-18T09:48:23;11.30;66.60
49549;DHT22;35450;44.518;7.466;2023-11-18T09:51:37;11.30;66.10
49549;DHT22;35450;44.518;7.466;2023-11-18T09:58:04;11.40;66.80
49549;DHT22;35450;44.518;7.466;2023-11-18T10:01:12;11.40;66.20
49549;DHT22;35450;44.518;7.466;2023-11-18T10:04:17;11.40;65.90
49549;DHT22;35450;44.518;7.466;2023-11-18T10:07:25;11.40;66.90
49549;DHT22;35450;44.518;7.466;2023-11-18T10:10:31;11.40;66.60
49549;DHT22;35450;44.518;7.466;2023-11-18T10:13:49;11.40;66.40
49549;DHT22;35450;44.518;7.466;2023-11-18T10:16:53;11.40;65.90
49549;DHT22;35450;44.518;7.466;2023-11-18T10:19:58;11.40;65.80
49549;DHT22;35450;44.518;7.466;2023-11-18T10:23:21;11.40;66.40
49549;DHT22;35450;44.518;7.466;2023-11-18T10:26:27;11.50;66.30
